createdAt,value
2019-02-14T00:00:21.537Z,101780.40
2019-02-14T00:02:57.338Z,101769.91
2019-02-14T00:05:30.798Z,101775.05
2019-02-14T00:08:03.385Z,101771.03
2019-02-14T00:10:36.675Z,101771.28
2019-02-14T00:13:10.073Z,101765.10
2019-02-14T00:15:42.361Z,101781.24
2019-02-14T00:18:15.829Z,101783.97
2019-02-14T00:20:49.657Z,101789.07
2019-02-14T00:23:22.261Z,101778.56
2019-02-14T00:25:54.989Z,101776.14
2019-02-14T00:28:28.121Z,101793.06
2019-02-14T00:31:01.263Z,101774.55
2019-02-14T00:33:34.570Z,101760.56
2019-02-14T00:36:07.622Z,101768.36
2019-02-14T00:38:40.700Z,101773.44
2019-02-14T00:41:14.033Z,101767.27
2019-02-14T00:43:47.048Z,101761.05
2019-02-14T00:46:20.231Z,101772.39
2019-02-14T00:48:53.325Z,101779.14
2019-02-14T00:51:26.299Z,101787.48
2019-02-14T00:53:59.590Z,101792.31
2019-02-14T00:56:32.197Z,101775.37
2019-02-14T00:59:05.804Z,101789.36
2019-02-14T01:01:39.302Z,101790.14
2019-02-14T01:04:12.372Z,101788.83
2019-02-14T01:06:45.662Z,101786.95
2019-02-14T01:09:19.569Z,101793.66
2019-02-14T01:11:52.863Z,101785.06
2019-02-14T01:14:26.298Z,101780.48
2019-02-14T01:16:59.879Z,101767.30
2019-02-14T01:19:32.995Z,101766.78
2019-02-14T01:22:06.359Z,101756.83
2019-02-14T01:24:40.028Z,101750.62
2019-02-14T01:27:13.165Z,101739.61
2019-02-14T01:29:46.540Z,101739.61
2019-02-14T01:32:19.538Z,101746.87
2019-02-14T01:34:53.108Z,101741.77
2019-02-14T01:37:26.634Z,101738.80
2019-02-14T01:39:59.962Z,101753.08
2019-02-14T01:42:33.327Z,101750.36
2019-02-14T01:45:07.136Z,101749.58
2019-02-14T01:47:40.129Z,101760.33
2019-02-14T01:50:13.933Z,101760.85
2019-02-14T01:52:47.737Z,101757.64
2019-02-14T01:55:21.247Z,101755.77
2019-02-14T01:57:54.187Z,101754.14
2019-02-14T02:00:27.212Z,101737.20
2019-02-14T02:03:00.713Z,101733.98
2019-02-14T02:05:34.508Z,101741.23
2019-02-14T02:08:08.975Z,101749.30
2019-02-14T02:10:42.537Z,101750.63
2019-02-14T02:13:16.386Z,101748.77
2019-02-14T02:15:49.750Z,101743.38
2019-02-14T02:18:23.328Z,101731.56
2019-02-14T02:20:56.975Z,101721.36
2019-02-14T02:23:29.653Z,101729.16
2019-02-14T02:26:02.919Z,101736.69
2019-02-14T02:28:35.914Z,101743.39
2019-02-14T02:31:08.728Z,101751.16
2019-02-14T02:33:42.092Z,101755.73
2019-02-14T02:36:15.374Z,101748.47
2019-02-14T02:38:48.875Z,101749.83
2019-02-14T02:41:22.482Z,101745.25
2019-02-14T02:43:55.566Z,101745.28
2019-02-14T02:46:28.812Z,101739.88
2019-02-14T02:49:01.547Z,101742.56
2019-02-14T02:51:34.985Z,101750.88
2019-02-14T02:54:08.393Z,101762.16
2019-02-14T02:56:41.316Z,101760.81
2019-02-14T02:59:15.050Z,101756.53
2019-02-14T03:01:48.557Z,101765.39
2019-02-14T03:04:22.517Z,101761.40
2019-02-14T03:06:55.951Z,101759.19
2019-02-14T03:09:29.618Z,101769.97
2019-02-14T03:12:02.754Z,101762.44
2019-02-14T03:14:36.754Z,101770.73
2019-02-14T03:17:09.838Z,101772.60
2019-02-14T03:19:42.961Z,101764.02
2019-02-14T03:22:16.415Z,101771.50
2019-02-14T03:24:49.460Z,101772.86
2019-02-14T03:27:23.143Z,101769.67
2019-02-14T03:29:56.514Z,101767.27
2019-02-14T03:32:29.514Z,101774.23
2019-02-14T03:35:03.115Z,101775.79
2019-02-14T03:37:36.389Z,101780.04
2019-02-14T03:40:10.316Z,101784.02
2019-02-14T03:42:42.871Z,101789.37
2019-02-14T03:45:16.356Z,101785.68
2019-02-14T03:47:49.381Z,101789.78
2019-02-14T03:50:22.812Z,101792.53
2019-02-14T03:52:56.886Z,101788.23
2019-02-14T03:55:30.274Z,101788.78
2019-02-14T03:58:03.678Z,101785.26
2019-02-14T04:00:36.319Z,101778.84
2019-02-14T04:03:09.345Z,101772.37
2019-02-14T04:05:42.359Z,101764.31
2019-02-14T04:08:15.761Z,101768.63
2019-02-14T04:10:48.307Z,101775.66
2019-02-14T04:13:21.397Z,101789.06
2019-02-14T04:15:53.997Z,101786.11
2019-02-14T04:18:26.730Z,101790.66
2019-02-14T04:20:59.479Z,101781.80
2019-02-14T04:23:32.448Z,101786.09
2019-02-14T04:26:05.415Z,101787.18
2019-02-14T04:28:37.679Z,101785.30
2019-02-14T04:31:10.654Z,101793.05
2019-02-14T04:33:43.660Z,101790.94
2019-02-14T04:36:17.106Z,101793.05
2019-02-14T04:38:50.511Z,101792.73
2019-02-14T04:41:24.323Z,101793.27
2019-02-14T04:43:57.243Z,101789.48
2019-02-14T04:46:31.082Z,101785.19
2019-02-14T04:49:04.828Z,101785.70
2019-02-14T04:51:38.485Z,101789.23
2019-02-14T04:54:12.259Z,101791.42
2019-02-14T04:56:45.154Z,101789.03
2019-02-14T04:59:18.550Z,101771.86
2019-02-14T05:01:51.543Z,101776.67
2019-02-14T05:04:24.114Z,101772.63
2019-02-14T05:06:58.141Z,101772.07
2019-02-14T05:09:32.460Z,101768.28
2019-02-14T05:12:05.130Z,101772.06
2019-02-14T05:14:38.525Z,101775.58
2019-02-14T05:17:11.923Z,101778.55
2019-02-14T05:19:45.427Z,101779.89
2019-02-14T05:22:19.228Z,101781.27
2019-02-14T05:24:52.835Z,101787.44
2019-02-14T05:27:25.824Z,101792.30
2019-02-14T05:29:59.046Z,101800.07
2019-02-14T05:32:32.411Z,101803.05
2019-02-14T05:35:08.192Z,101804.10
2019-02-14T05:37:41.571Z,101799.28
2019-02-14T05:40:14.944Z,101800.87
2019-02-14T05:42:48.778Z,101812.70
2019-02-14T05:45:22.339Z,101808.95
2019-02-14T05:47:55.414Z,101805.46
2019-02-14T05:50:29.142Z,101800.88
2019-02-14T05:53:02.563Z,101797.89
2019-02-14T05:55:35.972Z,101813.50
2019-02-14T05:58:09.043Z,101819.67
2019-02-14T06:00:42.542Z,101823.41
2019-02-14T06:03:15.630Z,101817.79
2019-02-14T06:05:49.400Z,101825.34
2019-02-14T06:08:22.343Z,101813.78
2019-02-14T06:10:54.589Z,101814.62
2019-02-14T06:13:31.065Z,101814.62
2019-02-14T06:16:04.525Z,101813.80
2019-02-14T06:18:40.450Z,101814.87
2019-02-14T06:21:13.689Z,101821.05
2019-02-14T06:23:46.416Z,101814.88
2019-02-14T06:26:19.792Z,101826.43
2019-02-14T06:28:53.295Z,101826.40
2019-02-14T06:31:26.923Z,101830.42
2019-02-14T06:34:00.936Z,101830.17
2019-02-14T06:36:34.219Z,101840.92
2019-02-14T06:39:07.437Z,101831.27
2019-02-14T06:41:42.917Z,101841.97
2019-02-14T06:44:15.854Z,101840.89
2019-02-14T06:46:49.583Z,101835.23
2019-02-14T06:49:23.339Z,101830.66
2019-02-14T06:51:56.742Z,101835.50
2019-02-14T06:54:30.432Z,101831.17
2019-02-14T06:57:03.697Z,101830.86
2019-02-14T06:59:37.417Z,101828.42
2019-02-14T07:02:10.828Z,101837.14
2019-02-14T07:04:44.434Z,101837.15
2019-02-14T07:07:18.858Z,101839.03
2019-02-14T07:09:52.454Z,101848.22
2019-02-14T07:12:25.559Z,101860.34
2019-02-14T07:14:58.764Z,101867.31
2019-02-14T07:17:31.827Z,101875.61
2019-02-14T07:20:05.605Z,101873.94
2019-02-14T07:22:39.125Z,101879.95
2019-02-14T07:25:11.774Z,101877.58
2019-02-14T07:27:46.533Z,101878.28
2019-02-14T07:30:19.197Z,101885.22
2019-02-14T07:32:51.902Z,101889.25
2019-02-14T07:35:25.964Z,101889.03
2019-02-14T07:37:59.828Z,101894.11
2019-02-14T07:40:33.010Z,101889.27
2019-02-14T07:43:06.404Z,101892.55
2019-02-14T07:45:41.342Z,101889.38
2019-02-14T07:48:15.564Z,101888.64
2019-02-14T07:50:49.390Z,101877.69
2019-02-14T07:53:22.890Z,101885.27
2019-02-14T07:55:56.640Z,101878.88
2019-02-14T07:58:29.665Z,101874.61
2019-02-14T08:01:02.814Z,101880.82
2019-02-14T08:03:35.847Z,101866.55
2019-02-14T08:06:09.347Z,101874.09
2019-02-14T08:08:42.834Z,101868.70
2019-02-14T08:11:16.115Z,101869.52
2019-02-14T08:13:49.634Z,101870.59
2019-02-14T08:16:22.927Z,101871.36
2019-02-14T08:18:57.355Z,101867.87
2019-02-14T08:21:31.150Z,101871.10
2019-02-14T08:24:04.662Z,101875.68
2019-02-14T08:26:37.686Z,101877.84
2019-02-14T08:29:10.741Z,101877.84
2019-02-14T08:31:43.706Z,101875.70
2019-02-14T08:34:16.679Z,101859.02
2019-02-14T08:36:49.250Z,101853.91
2019-02-14T08:39:21.997Z,101854.45
2019-02-14T08:41:55.010Z,101854.70
2019-02-14T08:44:28.361Z,101853.61
2019-02-14T08:47:02.176Z,101852.23
2019-02-14T08:49:35.562Z,101851.39
2019-02-14T08:52:08.999Z,101863.13
2019-02-14T08:54:42.036Z,101879.75
2019-02-14T08:57:15.746Z,101892.27
2019-02-14T08:59:48.437Z,101896.67
2019-02-14T09:02:21.870Z,101906.21
2019-02-14T09:04:56.275Z,101901.85
2019-02-14T09:07:28.846Z,101895.98
2019-02-14T09:10:01.815Z,101896.02
2019-02-14T09:12:36.048Z,101897.81
2019-02-14T09:15:09.542Z,101898.16
2019-02-14T09:17:42.613Z,101902.03
2019-02-14T09:20:15.706Z,101902.27
2019-02-14T09:22:49.423Z,101889.23
2019-02-14T09:25:22.748Z,101883.83
2019-02-14T09:27:55.702Z,101872.97
2019-02-14T09:30:29.700Z,101868.17
2019-02-14T09:33:02.906Z,101864.83
2019-02-14T09:35:36.825Z,101870.58
2019-02-14T09:38:09.888Z,101877.56
2019-02-14T09:40:43.547Z,101877.19
2019-02-14T09:43:16.994Z,101887.08
2019-02-14T09:45:50.296Z,101881.45
2019-02-14T09:48:23.800Z,101878.59
2019-02-14T09:50:57.139Z,101871.78
2019-02-14T09:53:30.197Z,101885.02
2019-02-14T09:56:04.018Z,101899.98
2019-02-14T09:58:37.065Z,101895.61
2019-02-14T10:01:09.792Z,101892.30
2019-02-14T10:03:43.322Z,101879.47
2019-02-14T10:06:16.399Z,101874.19
2019-02-14T10:08:49.967Z,101871.38
2019-02-14T10:11:22.760Z,101870.03
2019-02-14T10:13:57.172Z,101876.59
2019-02-14T10:16:30.565Z,101876.64
2019-02-14T10:19:03.233Z,101884.54
2019-02-14T10:21:37.232Z,101888.05
2019-02-14T10:24:10.586Z,101879.67
2019-02-14T10:26:43.843Z,101872.02
2019-02-14T10:29:17.263Z,101868.23
2019-02-14T10:31:51.193Z,101869.57
2019-02-14T10:34:24.818Z,101880.78
2019-02-14T10:36:59.023Z,101876.72
2019-02-14T10:39:32.382Z,101881.80
2019-02-14T10:42:05.417Z,101873.80
2019-02-14T10:44:38.738Z,101878.00
2019-02-14T10:47:11.674Z,101879.01
2019-02-14T10:49:44.960Z,101882.34
2019-02-14T10:52:17.592Z,101884.61
2019-02-14T10:54:50.835Z,101888.94
2019-02-14T10:57:24.258Z,101886.12
2019-02-14T10:59:59.152Z,101884.94
2019-02-14T11:02:32.522Z,101876.57
2019-02-14T11:05:05.693Z,101870.51
2019-02-14T11:07:38.909Z,101867.30
2019-02-14T11:10:12.381Z,101869.11
2019-02-14T11:12:46.051Z,101867.50
2019-02-14T11:15:20.280Z,101868.74
2019-02-14T11:17:54.038Z,101869.73
2019-02-14T11:20:27.121Z,101867.37
2019-02-14T11:23:00.727Z,101859.46
2019-02-14T11:25:33.587Z,101864.08
2019-02-14T11:28:06.644Z,101868.35
2019-02-14T11:30:40.079Z,101864.70
2019-02-14T11:33:13.076Z,101857.06
2019-02-14T11:35:46.978Z,101852.28
2019-02-14T11:38:21.115Z,101850.43
2019-02-14T11:40:54.516Z,101853.06
2019-02-14T11:43:27.989Z,101852.52
2019-02-14T11:46:01.482Z,101846.05
2019-02-14T11:48:34.874Z,101844.08
2019-02-14T11:51:07.879Z,101841.05
2019-02-14T11:53:43.498Z,101846.24
2019-02-14T11:56:16.831Z,101847.27
2019-02-14T11:58:50.217Z,101844.78
2019-02-14T12:01:22.891Z,101837.93
2019-02-14T12:03:55.592Z,101837.90
2019-02-14T12:06:29.449Z,101841.69
2019-02-14T12:09:04.413Z,101849.72
2019-02-14T12:11:39.559Z,101851.19
2019-02-14T12:14:12.969Z,101846.60
2019-02-14T12:16:46.468Z,101838.27
2019-02-14T12:19:20.392Z,101835.74
2019-02-14T12:21:53.453Z,101833.06
2019-02-14T12:24:26.448Z,101831.60
2019-02-14T12:26:58.740Z,101832.66
2019-02-14T12:29:32.145Z,101831.98
2019-02-14T12:32:05.194Z,101823.97
2019-02-14T12:34:37.917Z,101812.61
2019-02-14T12:37:11.589Z,101813.84
2019-02-14T12:39:45.106Z,101808.73
2019-02-14T12:42:18.185Z,101811.64
2019-02-14T12:44:50.792Z,101811.40
2019-02-14T12:47:23.831Z,101809.34
2019-02-14T12:49:57.596Z,101809.59
2019-02-14T12:52:31.391Z,101808.59
2019-02-14T12:55:04.756Z,101799.48
2019-02-14T12:57:38.144Z,101791.76
2019-02-14T13:00:14.742Z,101797.09
2019-02-14T13:02:47.816Z,101796.75
2019-02-14T13:05:21.323Z,101787.06
2019-02-14T13:07:55.214Z,101787.06
2019-02-14T13:10:28.724Z,101780.20
2019-02-14T13:13:01.409Z,101784.22
2019-02-14T13:15:34.979Z,101790.82
2019-02-14T13:18:07.665Z,101783.67
2019-02-14T13:20:41.070Z,101779.43
2019-02-14T13:23:14.508Z,101776.03
2019-02-14T13:25:47.710Z,101775.78
2019-02-14T13:28:20.689Z,101777.24
2019-02-14T13:30:53.628Z,101773.55
2019-02-14T13:33:27.161Z,101779.94
2019-02-14T13:36:00.941Z,101774.64
2019-02-14T13:38:34.502Z,101772.80
2019-02-14T13:41:09.176Z,101775.04
2019-02-14T13:43:42.312Z,101776.41
2019-02-14T13:46:15.706Z,101773.30
2019-02-14T13:48:48.783Z,101775.08
2019-02-14T13:51:22.346Z,101769.01
2019-02-14T13:53:56.110Z,101768.38
2019-02-14T13:56:30.210Z,101763.02
2019-02-14T13:59:03.365Z,101764.38
2019-02-14T14:01:36.357Z,101764.11
2019-02-14T14:04:09.415Z,101762.03
2019-02-14T14:06:42.106Z,101755.80
2019-02-14T14:09:15.636Z,101762.33
2019-02-14T14:11:49.963Z,101756.59
2019-02-14T14:14:23.352Z,101767.14
2019-02-14T14:16:57.256Z,101766.49
2019-02-14T14:19:30.560Z,101757.53
2019-02-14T14:22:03.620Z,101753.31
2019-02-14T14:24:37.507Z,101754.25
2019-02-14T14:27:11.388Z,101751.07
2019-02-14T14:29:45.157Z,101749.91
2019-02-14T14:32:18.594Z,101743.62
2019-02-14T14:34:52.006Z,101743.02
2019-02-14T14:37:24.922Z,101746.64
2019-02-14T14:39:59.786Z,101751.41
2019-02-14T14:42:55.061Z,101754.62
2019-02-14T14:45:50.607Z,101745.87
2019-02-14T14:48:26.499Z,101743.69
2019-02-14T14:51:00.059Z,101743.83
2019-02-14T14:53:33.438Z,101745.24
2019-02-14T14:56:06.527Z,101741.95
2019-02-14T14:58:39.245Z,101743.48
2019-02-14T15:01:12.709Z,101741.06
2019-02-14T15:03:45.717Z,101734.41
2019-02-14T15:06:19.316Z,101742.66
2019-02-14T15:08:54.631Z,101735.06
2019-02-14T15:11:28.440Z,101740.22
2019-02-14T15:14:02.504Z,101736.17
2019-02-14T15:16:36.684Z,101735.97
2019-02-14T15:19:11.221Z,101737.15
2019-02-14T15:21:45.236Z,101736.33
2019-02-14T15:24:18.706Z,101728.58
2019-02-14T15:26:54.553Z,101725.61
2019-02-14T15:29:30.021Z,101719.70
2019-02-14T15:32:02.992Z,101724.59
2019-02-14T15:34:36.212Z,101728.57
2019-02-14T15:37:09.862Z,101718.30
2019-02-14T15:39:42.562Z,101712.98
2019-02-14T15:42:15.787Z,101713.84
2019-02-14T15:44:49.737Z,101706.80
2019-02-14T15:47:23.327Z,101706.86
2019-02-14T15:49:56.089Z,101710.02
2019-02-14T15:52:30.245Z,101700.71
2019-02-14T15:55:04.885Z,101702.63
2019-02-14T15:57:40.455Z,101705.27
2019-02-14T16:00:13.789Z,101712.29
2019-02-14T16:02:47.906Z,101711.47
2019-02-14T16:05:21.167Z,101711.41
2019-02-14T16:07:54.645Z,101711.02
2019-02-14T16:10:29.703Z,101714.08
2019-02-14T16:13:05.833Z,101719.46
2019-02-14T16:15:40.834Z,101721.80
2019-02-14T16:18:13.935Z,101721.69
2019-02-14T16:20:47.734Z,101712.02
2019-02-14T16:23:21.278Z,101725.44
2019-02-14T16:25:56.796Z,101723.55
2019-02-14T16:28:30.601Z,101714.10
2019-02-14T16:31:04.151Z,101718.36
2019-02-14T16:33:38.257Z,101711.70
2019-02-14T16:36:11.452Z,101719.59
2019-02-14T16:38:44.776Z,101713.02
2019-02-14T16:41:18.618Z,101716.55
2019-02-14T16:43:52.203Z,101718.89
2019-02-14T16:46:25.498Z,101720.80
2019-02-14T16:48:59.297Z,101723.81
2019-02-14T16:51:33.134Z,101729.83
2019-02-14T16:54:06.124Z,101735.13
2019-02-14T16:56:38.861Z,101730.42
2019-02-14T16:59:12.687Z,101731.52
2019-02-14T17:01:45.908Z,101727.82
2019-02-14T17:04:21.165Z,101736.62
2019-02-14T17:06:54.373Z,101741.25
2019-02-14T17:09:30.233Z,101734.59
2019-02-14T17:12:03.345Z,101738.13
2019-02-14T17:14:37.184Z,101744.42
